McComb, MS (39648)

1:41 PM CDT on August 28, 2015 (GMT -0500)
Pinehurst | | Change Station
CLOSE
Current Station
Personal Weather Station
Location: McComb, MS
Elevation: 442 ft
Nearby Weather Stations

Elev 442 ft 31.21 °N, 90.50 °W | Updated 1 minute ago

Mostly Cloudy
Mostly Cloudy
87.5 °F
Feels Like 89 °F
N
1.0
Wind Variable Wind from NNE
Gusts 11.0 mph

Today
High -- | Low -- °F
--% Chance of Precip.
Yesterday
High -- | Low -- °F
Precip. -- in
6:35 AM 7:30 PM
Waxing Gibbous, 98% visible
Pressure 30.01 in
Visibility 10.0 miles
Clouds Mostly Cloudy 6000 ft
Heat Index 89 °F
Dew Point 65 °F
Humidity 47%
Rainfall 0.00 in
Snow Depth Not available.
UV 3.4 out of 12
Pollen 7.40 out of 12
Air Quality Not available.
Flu Activity Not available.
METAR KMCB 281753Z AUTO VRB04KT 10SM BKN060 31/17 A3003 RMK AO2 SLP163 T03060167 10306 20189 58010
Pressure 30.01 in
Visibility 10.0 miles
Clouds Mostly Cloudy 6000 ft
Heat Index 89 °F
Dew Point 65 °F
Humidity 47%
Rainfall 0.00 in
Snow Depth Not available.
UV 3.4 out of 12
Pollen 7.40 out of 12
Air Quality Not available.
Flu Activity Not available.
METAR KMCB 281753Z AUTO VRB04KT 10SM BKN060 31/17 A3003 RMK AO2 SLP163 T03060167 10306 20189 58010

10-Day Weather Forecast

×

Almanac

Astronomy

Aug. 28, 2015 Rise Set
Actual Time
Civil Twilight
Nautical Twilight
Astronomical Twilight
Moon
Length of Visible Light
Length of Day
Tomorrow will be .
, % of the Moon is Illuminated

Today's Extremes

State Highs State Lows

Community

WunderPhotos

Upload Photos

1,850,453 photos uploaded!

WunderBlogs® & News

Nearby

Air Quality

  Air Quality AQ Index Pollutant
Not available.

Snow Depth

Station Depth Elevation

Earthquake Activity

City Distance Mag. Time & Date
Minimum magnitude displayed is 2.5.

Coastal Water Temperatures

Place Temperature

Stations

Nearby Weather Stations

Station Location Temp. Windchill Dew Point Humidity Wind Precip. Elev Updated Type